sensor_id;sensor_type;location;lat;lon;timestamp;pressure;altitude;pressure_sealevel;temperature;humidity
71424;BME280;59240;51.370;-0.486;2023-05-22T00:01:39;101924.34;;;14.69;50.15
71424;BME280;59240;51.370;-0.486;2023-05-22T00:04:08;101922.59;;;14.68;51.07
71424;BME280;59240;51.370;-0.486;2023-05-22T00:06:35;101925.22;;;14.68;50.28
71424;BME280;59240;51.370;-0.486;2023-05-22T00:09:03;101915.69;;;14.64;50.26
71424;BME280;59240;51.370;-0.486;2023-05-22T00:11:30;101914.88;;;14.61;50.69
71424;BME280;59240;51.370;-0.486;2023-05-22T00:13:56;101918.34;;;14.63;50.40
71424;BME280;59240;51.370;-0.486;2023-05-22T00:16:23;101918.34;;;14.63;50.91
71424;BME280;59240;51.370;-0.486;2023-05-22T00:18:49;101927.00;;;14.66;50.35
71424;BME280;59240;51.370;-0.486;2023-05-22T00:21:16;101913.97;;;14.63;51.02
71424;BME280;59240;51.370;-0.486;2023-05-22T00:23:43;101923.47;;;14.67;51.02
71424;BME280;59240;51.370;-0.486;2023-05-22T00:26:13;101905.25;;;14.61;50.42
71424;BME280;59240;51.370;-0.486;2023-05-22T00:28:39;101898.34;;;14.57;50.71
71424;BME280;59240;51.370;-0.486;2023-05-22T00:31:06;101911.41;;;14.60;51.05
71424;BME280;59240;51.370;-0.486;2023-05-22T00:33:32;101907.06;;;14.59;51.07
71424;BME280;59240;51.370;-0.486;2023-05-22T00:36:00;101905.41;;;14.54;51.31
71424;BME280;59240;51.370;-0.486;2023-05-22T00:38:32;101889.88;;;14.43;52.18
71424;BME280;59240;51.370;-0.486;2023-05-22T00:41:00;101896.84;;;14.44;51.54
71424;BME280;59240;51.370;-0.486;2023-05-22T00:43:27;101902.13;;;14.41;51.61
71424;BME280;59240;51.370;-0.486;2023-05-22T00:45:54;101904.88;;;14.36;51.78
71424;BME280;59240;51.370;-0.486;2023-05-22T00:48:21;101885.81;;;14.27;51.27
71424;BME280;59240;51.370;-0.486;2023-05-22T00:50:49;101895.38;;;14.31;51.81
71424;BME280;59240;51.370;-0.486;2023-05-22T00:53:17;101896.50;;;14.17;51.63
71424;BME280;59240;51.370;-0.486;2023-05-22T00:55:45;101866.16;;;14.04;52.34
71424;BME280;59240;51.370;-0.486;2023-05-22T00:58:14;101888.63;;;14.17;52.43
71424;BME280;59240;51.370;-0.486;2023-05-22T01:00:43;101874.94;;;14.03;52.19
71424;BME280;59240;51.370;-0.486;2023-05-22T01:03:10;101892.25;;;14.10;52.60
71424;BME280;59240;51.370;-0.486;2023-05-22T01:05:38;101887.91;;;14.09;52.68
71424;BME280;59240;51.370;-0.486;2023-05-22T01:08:07;101885.44;;;14.02;52.95
71424;BME280;59240;51.370;-0.486;2023-05-22T01:10:37;101881.22;;;13.93;52.56
71424;BME280;59240;51.370;-0.486;2023-05-22T01:15:51;101884.69;;;13.95;54.09
71424;BME280;59240;51.370;-0.486;2023-05-22T01:18:26;101887.41;;;13.89;54.76
71424;BME280;59240;51.370;-0.486;2023-05-22T01:21:15;101891.72;;;13.91;54.87
71424;BME280;59240;51.370;-0.486;2023-05-22T01:32:22;101863.13;;;13.81;53.88
71424;BME280;59240;51.370;-0.486;2023-05-22T01:34:53;101880.38;;;13.91;54.93
71424;BME280;59240;51.370;-0.486;2023-05-22T01:37:22;101863.06;;;13.84;52.98
71424;BME280;59240;51.370;-0.486;2023-05-22T01:39:50;101869.81;;;13.97;53.06
71424;BME280;59240;51.370;-0.486;2023-05-22T01:42:17;101873.31;;;13.96;53.59
71424;BME280;59240;51.370;-0.486;2023-05-22T01:44:44;101866.41;;;13.92;54.08
71424;BME280;59240;51.370;-0.486;2023-05-22T01:47:13;101868.00;;;13.99;53.35
71424;BME280;59240;51.370;-0.486;2023-05-22T01:49:40;101870.50;;;14.05;54.14
71424;BME280;59240;51.370;-0.486;2023-05-22T01:57:32;101863.50;;;14.07;55.48
71424;BME280;59240;51.370;-0.486;2023-05-22T02:00:12;101861.81;;;14.03;55.32
71424;BME280;59240;51.370;-0.486;2023-05-22T02:02:43;101843.69;;;13.94;54.56
71424;BME280;59240;51.370;-0.486;2023-05-22T02:05:11;101862.72;;;14.02;53.99
71424;BME280;59240;51.370;-0.486;2023-05-22T02:07:40;101840.19;;;13.92;54.63
71424;BME280;59240;51.370;-0.486;2023-05-22T02:10:09;101864.34;;;14.09;53.85
71424;BME280;59240;51.370;-0.486;2023-05-22T02:12:36;101859.09;;;14.09;54.93
71424;BME280;59240;51.370;-0.486;2023-05-22T02:15:04;101860.75;;;14.13;54.33
71424;BME280;59240;51.370;-0.486;2023-05-22T02:17:37;101866.81;;;14.17;55.33
71424;BME280;59240;51.370;-0.486;2023-05-22T02:20:10;101852.06;;;14.11;56.29
71424;BME280;59240;51.370;-0.486;2023-05-22T02:22:41;101852.13;;;14.08;55.30
71424;BME280;59240;51.370;-0.486;2023-05-22T02:25:13;101858.91;;;14.18;55.74
71424;BME280;59240;51.370;-0.486;2023-05-22T02:27:47;101851.00;;;14.20;54.74
71424;BME280;59240;51.370;-0.486;2023-05-22T02:30:15;101852.75;;;14.19;54.91
71424;BME280;59240;51.370;-0.486;2023-05-22T02:32:41;101845.91;;;14.14;55.37
71424;BME280;59240;51.370;-0.486;2023-05-22T02:35:08;101856.16;;;14.24;54.33
71424;BME280;59240;51.370;-0.486;2023-05-22T02:37:35;101839.75;;;14.16;54.60
71424;BME280;59240;51.370;-0.486;2023-05-22T02:40:02;101844.97;;;14.16;54.83
71424;BME280;59240;51.370;-0.486;2023-05-22T02:42:31;101843.19;;;14.18;54.31
71424;BME280;59240;51.370;-0.486;2023-05-22T02:44:58;101850.09;;;14.22;54.80
71424;BME280;59240;51.370;-0.486;2023-05-22T02:47:25;101861.47;;;14.21;54.15
71424;BME280;59240;51.370;-0.486;2023-05-22T02:49:51;101841.56;;;14.11;54.34
71424;BME280;59240;51.370;-0.486;2023-05-22T02:52:18;101852.81;;;14.18;54.77
71424;BME280;59240;51.370;-0.486;2023-05-22T02:54:44;101863.16;;;14.24;54.61
71424;BME280;59240;51.370;-0.486;2023-05-22T02:57:11;101860.53;;;14.24;55.11
71424;BME280;59240;51.370;-0.486;2023-05-22T02:59:38;101848.38;;;14.21;54.27
71424;BME280;59240;51.370;-0.486;2023-05-22T03:02:04;101862.19;;;14.30;54.48
71424;BME280;59240;51.370;-0.486;2023-05-22T03:04:31;101853.53;;;14.24;54.63
71424;BME280;59240;51.370;-0.486;2023-05-22T03:06:58;101835.44;;;14.12;54.90
71424;BME280;59240;51.370;-0.486;2023-05-22T03:09:26;101850.97;;;14.23;55.20
71424;BME280;59240;51.370;-0.486;2023-05-22T03:11:53;101861.31;;;14.29;55.44
71424;BME280;59240;51.370;-0.486;2023-05-22T03:14:19;101860.47;;;14.29;55.77
71424;BME280;59240;51.370;-0.486;2023-05-22T03:16:46;101850.91;;;14.24;55.82
71424;BME280;59240;51.370;-0.486;2023-05-22T03:19:14;101858.75;;;14.28;55.61
71424;BME280;59240;51.370;-0.486;2023-05-22T03:21:41;101851.75;;;14.27;55.63
71424;BME280;59240;51.370;-0.486;2023-05-22T03:24:11;101824.16;;;14.09;54.98
71424;BME280;59240;51.370;-0.486;2023-05-22T03:26:37;101820.78;;;14.04;55.77
71424;BME280;59240;51.370;-0.486;2023-05-22T03:29:04;101841.47;;;14.17;55.33
71424;BME280;59240;51.370;-0.486;2023-05-22T03:31:32;101844.13;;;14.16;54.86
71424;BME280;59240;51.370;-0.486;2023-05-22T03:33:59;101833.78;;;14.08;55.88
71424;BME280;59240;51.370;-0.486;2023-05-22T03:36:26;101831.13;;;14.10;55.63
71424;BME280;59240;51.370;-0.486;2023-05-22T03:38:55;101835.50;;;14.09;56.38
71424;BME280;59240;51.370;-0.486;2023-05-22T03:41:22;101846.69;;;14.17;56.09
71424;BME280;59240;51.370;-0.486;2023-05-22T03:43:49;101832.88;;;14.09;56.31
71424;BME280;59240;51.370;-0.486;2023-05-22T03:46:15;101835.41;;;14.15;56.60
71424;BME280;59240;51.370;-0.486;2023-05-22T03:48:42;101825.94;;;14.08;56.62
71424;BME280;59240;51.370;-0.486;2023-05-22T03:51:09;101838.91;;;14.14;56.64
71424;BME280;59240;51.370;-0.486;2023-05-22T03:53:35;101828.47;;;14.11;56.00
71424;BME280;59240;51.370;-0.486;2023-05-22T03:56:02;101835.44;;;14.14;56.38
71424;BME280;59240;51.370;-0.486;2023-05-22T03:58:29;101842.41;;;14.13;56.85
71424;BME280;59240;51.370;-0.486;2023-05-22T04:00:56;101824.25;;;14.04;56.31
71424;BME280;59240;51.370;-0.486;2023-05-22T04:03:24;101815.59;;;14.01;55.56
71424;BME280;59240;51.370;-0.486;2023-05-22T04:05:51;101825.94;;;14.08;56.48
71424;BME280;59240;51.370;-0.486;2023-05-22T04:08:17;101838.91;;;14.13;56.46
71424;BME280;59240;51.370;-0.486;2023-05-22T04:10:44;101845.91;;;14.12;56.35
71424;BME280;59240;51.370;-0.486;2023-05-22T04:13:12;101845.91;;;14.12;57.34
71424;BME280;59240;51.370;-0.486;2023-05-22T04:15:39;101829.59;;;13.98;56.77
71424;BME280;59240;51.370;-0.486;2023-05-22T04:18:11;101834.84;;;13.98;56.57
71424;BME280;59240;51.370;-0.486;2023-05-22T04:20:38;101848.66;;;14.06;56.29
71424;BME280;59240;51.370;-0.486;2023-05-22T04:23:06;101842.66;;;14.01;57.41
71424;BME280;59240;51.370;-0.486;2023-05-22T04:25:33;101845.22;;;14.04;55.84
71424;BME280;59240;51.370;-0.486;2023-05-22T04:28:00;101848.72;;;14.03;56.70
71424;BME280;59240;51.370;-0.486;2023-05-22T04:30:30;101839.22;;;13.98;57.20
71424;BME280;59240;51.370;-0.486;2023-05-22T04:33:03;101864.34;;;14.09;58.11
71424;BME280;59240;51.370;-0.486;2023-05-22T04:35:31;101847.91;;;14.00;57.19
71424;BME280;59240;51.370;-0.486;2023-05-22T04:37:58;101861.78;;;14.05;57.81
71424;BME280;59240;51.370;-0.486;2023-05-22T04:40:28;101854.78;;;14.05;57.76
71424;BME280;59240;51.370;-0.486;2023-05-22T04:42:55;101833.22;;;13.91;57.32
71424;BME280;59240;51.370;-0.486;2023-05-22T04:45:26;101855.66;;;14.07;56.87
71424;BME280;59240;51.370;-0.486;2023-05-22T04:47:54;101821.94;;;13.89;57.38
71424;BME280;59240;51.370;-0.486;2023-05-22T04:50:21;101849.50;;;14.07;57.25
71424;BME280;59240;51.370;-0.486;2023-05-22T04:52:49;101850.44;;;14.04;57.34
71424;BME280;59240;51.370;-0.486;2023-05-22T04:55:16;101842.59;;;14.04;57.59
71424;BME280;59240;51.370;-0.486;2023-05-22T04:57:42;101825.34;;;13.92;56.79
71424;BME280;59240;51.370;-0.486;2023-05-22T05:00:10;101862.63;;;14.08;59.95
71424;BME280;59240;51.370;-0.486;2023-05-22T05:02:39;101858.28;;;14.06;57.37
71424;BME280;59240;51.370;-0.486;2023-05-22T05:05:07;101845.31;;;13.98;59.14
71424;BME280;59240;51.370;-0.486;2023-05-22T05:07:41;101860.81;;;14.10;60.03
71424;BME280;59240;51.370;-0.486;2023-05-22T05:10:09;101845.25;;;14.03;58.33
71424;BME280;59240;51.370;-0.486;2023-05-22T05:12:35;101853.03;;;14.06;59.31
71424;BME280;59240;51.370;-0.486;2023-05-22T05:15:02;101871.22;;;14.13;58.92
71424;BME280;59240;51.370;-0.486;2023-05-22T05:17:29;101864.34;;;14.09;59.00
71424;BME280;59240;51.370;-0.486;2023-05-22T05:19:56;101879.00;;;14.18;58.41
71424;BME280;59240;51.370;-0.486;2023-05-22T05:22:22;101855.41;;;14.18;58.42
71424;BME280;59240;51.370;-0.486;2023-05-22T05:24:49;101856.16;;;14.24;57.66
71424;BME280;59240;51.370;-0.486;2023-05-22T05:27:16;101876.94;;;14.34;58.19
71424;BME280;59240;51.370;-0.486;2023-05-22T05:29:42;101867.47;;;14.27;57.64
71424;BME280;59240;51.370;-0.486;2023-05-22T05:32:09;101856.16;;;14.24;58.26
71424;BME280;59240;51.370;-0.486;2023-05-22T05:34:37;101882.91;;;14.42;58.09
71424;BME280;59240;51.370;-0.486;2023-05-22T05:37:04;101890.69;;;14.46;58.70
71424;BME280;59240;51.370;-0.486;2023-05-22T05:39:31;101878.53;;;14.42;57.82
71424;BME280;59240;51.370;-0.486;2023-05-22T05:41:58;101889.72;;;14.52;58.33
71424;BME280;59240;51.370;-0.486;2023-05-22T05:44:25;101875.72;;;14.53;57.42
71424;BME280;59240;51.370;-0.486;2023-05-22T05:46:52;101874.06;;;14.49;57.92
71424;BME280;59240;51.370;-0.486;2023-05-22T05:49:19;101888.66;;;14.61;58.40
71424;BME280;59240;51.370;-0.486;2023-05-22T05:51:46;101889.47;;;14.64;57.50
71424;BME280;59240;51.370;-0.486;2023-05-22T05:54:12;101870.28;;;14.62;57.11
71424;BME280;59240;51.370;-0.486;2023-05-22T05:56:39;101876.25;;;14.69;57.78
71424;BME280;59240;51.370;-0.486;2023-05-22T05:59:06;101882.25;;;14.75;57.94
71424;BME280;59240;51.370;-0.486;2023-05-22T06:01:33;101892.44;;;14.88;57.76
71424;BME280;59240;51.370;-0.486;2023-05-22T06:04:01;101883.66;;;14.89;57.69
71424;BME280;59240;51.370;-0.486;2023-05-22T06:06:30;101863.97;;;14.71;57.54
71424;BME280;59240;51.370;-0.486;2023-05-22T06:09:05;101871.66;;;14.78;57.16
71424;BME280;59240;51.370;-0.486;2023-05-22T06:11:32;101880.94;;;14.93;57.15
71424;BME280;59240;51.370;-0.486;2023-05-22T06:14:03;101883.50;;;14.98;57.50
71424;BME280;59240;51.370;-0.486;2023-05-22T06:16:30;101893.75;;;15.07;56.76
71424;BME280;59240;51.370;-0.486;2023-05-22T06:18:57;101894.53;;;15.12;57.52
71424;BME280;59240;51.370;-0.486;2023-05-22T06:21:24;101897.16;;;15.12;57.58
71424;BME280;59240;51.370;-0.486;2023-05-22T06:23:51;101876.44;;;15.00;56.73
71424;BME280;59240;51.370;-0.486;2023-05-22T06:26:18;101890.97;;;15.15;57.34
71424;BME280;59240;51.370;-0.486;2023-05-22T06:28:45;101881.41;;;15.12;57.58
71424;BME280;59240;51.370;-0.486;2023-05-22T06:31:12;101893.63;;;15.13;56.85
71424;BME280;59240;51.370;-0.486;2023-05-22T06:33:39;101910.81;;;15.26;56.50
71424;BME280;59240;51.370;-0.486;2023-05-22T06:36:09;101892.66;;;15.17;56.50
71424;BME280;59240;51.370;-0.486;2023-05-22T06:38:36;101886.38;;;15.24;56.81
71424;BME280;59240;51.370;-0.486;2023-05-22T06:41:04;101897.41;;;15.39;56.57
71424;BME280;59240;51.370;-0.486;2023-05-22T06:43:30;101896.28;;;15.49;56.39
71424;BME280;59240;51.370;-0.486;2023-05-22T06:45:57;101903.94;;;15.58;56.03
71424;BME280;59240;51.370;-0.486;2023-05-22T06:48:24;101914.13;;;15.72;56.86
71424;BME280;59240;51.370;-0.486;2023-05-22T06:50:51;101911.47;;;15.73;56.57
71424;BME280;59240;51.370;-0.486;2023-05-22T06:53:18;101914.59;;;15.88;56.36
71424;BME280;59240;51.370;-0.486;2023-05-22T06:55:45;101916.22;;;15.92;55.57
71424;BME280;59240;51.370;-0.486;2023-05-22T06:58:12;101922.97;;;16.02;55.66
71424;BME280;59240;51.370;-0.486;2023-05-22T07:00:38;101935.66;;;16.19;55.77
71424;BME280;59240;51.370;-0.486;2023-05-22T07:03:05;101912.31;;;16.08;55.52
71424;BME280;59240;51.370;-0.486;2023-05-22T07:05:33;101918.16;;;16.18;54.77
71424;BME280;59240;51.370;-0.486;2023-05-22T07:07:59;101929.16;;;16.33;55.06
71424;BME280;59240;51.370;-0.486;2023-05-22T07:10:27;101936.69;;;16.46;54.54
71424;BME280;59240;51.370;-0.486;2023-05-22T07:12:53;101925.44;;;16.40;54.48
71424;BME280;59240;51.370;-0.486;2023-05-22T07:15:20;101952.94;;;16.60;54.37
71424;BME280;59240;51.370;-0.486;2023-05-22T07:17:49;101964.09;;;16.70;54.98
71424;BME280;59240;51.370;-0.486;2023-05-22T07:20:16;101945.94;;;16.59;53.12
71424;BME280;59240;51.370;-0.486;2023-05-22T07:22:43;101956.16;;;16.71;54.17
71424;BME280;59240;51.370;-0.486;2023-05-22T07:25:09;101963.94;;;16.76;53.81
71424;BME280;59240;51.370;-0.486;2023-05-22T07:27:38;101967.97;;;16.87;53.98
71424;BME280;59240;51.370;-0.486;2023-05-22T07:30:05;101948.84;;;16.82;53.94
71424;BME280;59240;51.370;-0.486;2023-05-22T07:32:32;101953.91;;;16.88;53.35
71424;BME280;59240;51.370;-0.486;2023-05-22T07:34:59;101943.38;;;16.88;53.63
71424;BME280;59240;51.370;-0.486;2023-05-22T07:37:26;101963.13;;;17.03;53.11
71424;BME280;59240;51.370;-0.486;2023-05-22T07:39:53;101939.56;;;16.99;52.65
71424;BME280;59240;51.370;-0.486;2023-05-22T07:42:19;101960.25;;;17.11;52.87
71424;BME280;59240;51.370;-0.486;2023-05-22T07:44:47;101951.56;;;17.09;52.67
71424;BME280;59240;51.370;-0.486;2023-05-22T07:47:13;101949.72;;;17.11;52.88
71424;BME280;59240;51.370;-0.486;2023-05-22T07:49:40;101955.63;;;17.19;51.95
71424;BME280;59240;51.370;-0.486;2023-05-22T07:52:07;101956.22;;;17.27;52.63
71424;BME280;59240;51.370;-0.486;2023-05-22T07:54:33;101965.03;;;17.26;52.13
71424;BME280;59240;51.370;-0.486;2023-05-22T07:57:00;101957.56;;;17.12;52.54
71424;BME280;59240;51.370;-0.486;2023-05-22T07:59:31;101962.84;;;17.12;52.29
71424;BME280;59240;51.370;-0.486;2023-05-22T08:02:02;101955.34;;;16.99;52.61
71424;BME280;59240;51.370;-0.486;2023-05-22T08:04:30;101970.69;;;17.14;52.29
71424;BME280;59240;51.370;-0.486;2023-05-22T08:06:57;101973.47;;;17.09;52.66
71424;BME280;59240;51.370;-0.486;2023-05-22T08:09:24;101980.41;;;17.12;52.26
71424;BME280;59240;51.370;-0.486;2023-05-22T08:11:53;101979.59;;;17.10;52.74
71424;BME280;59240;51.370;-0.486;2023-05-22T08:14:20;101982.25;;;17.08;51.80
71424;BME280;59240;51.370;-0.486;2023-05-22T08:16:47;101979.84;;;17.01;52.57
71424;BME280;59240;51.370;-0.486;2023-05-22T08:19:14;102000.00;;;17.02;52.13
71424;BME280;59240;51.370;-0.486;2023-05-22T08:21:41;101983.69;;;16.90;52.33
71424;BME280;59240;51.370;-0.486;2023-05-22T08:24:07;102006.34;;;16.94;52.28
71424;BME280;59240;51.370;-0.486;2023-05-22T08:26:34;101995.03;;;16.92;51.79
71424;BME280;59240;51.370;-0.486;2023-05-22T08:29:01;101994.97;;;16.94;52.21
71424;BME280;59240;51.370;-0.486;2023-05-22T08:31:28;101989.94;;;16.86;51.88
71424;BME280;59240;51.370;-0.486;2023-05-22T08:33:55;101992.56;;;16.86;52.11
71424;BME280;59240;51.370;-0.486;2023-05-22T08:36:31;101977.09;;;16.76;52.23
71424;BME280;59240;51.370;-0.486;2023-05-22T08:39:01;101977.13;;;16.74;51.76
71424;BME280;59240;51.370;-0.486;2023-05-22T08:41:31;101989.19;;;16.81;51.70
71424;BME280;59240;51.370;-0.486;2023-05-22T08:44:01;101975.41;;;16.73;52.32
71424;BME280;59240;51.370;-0.486;2023-05-22T08:46:29;102006.47;;;16.91;52.13
71424;BME280;59240;51.370;-0.486;2023-05-22T08:48:57;101986.59;;;16.80;52.11
71424;BME280;59240;51.370;-0.486;2023-05-22T08:51:27;101985.78;;;16.78;52.10
71424;BME280;59240;51.370;-0.486;2023-05-22T08:53:57;101970.13;;;16.73;51.85
71424;BME280;59240;51.370;-0.486;2023-05-22T08:56:24;101997.81;;;16.86;52.36
71424;BME280;59240;51.370;-0.486;2023-05-22T08:58:55;101988.44;;;16.78;52.29
71424;BME280;59240;51.370;-0.486;2023-05-22T09:01:22;101995.25;;;16.85;51.82
71424;BME280;59240;51.370;-0.486;2023-05-22T09:03:50;102008.19;;;16.92;52.02
71424;BME280;59240;51.370;-0.486;2023-05-22T09:06:17;102006.50;;;16.90;51.79
71424;BME280;59240;51.370;-0.486;2023-05-22T09:08:44;102015.03;;;16.98;51.85
71424;BME280;59240;51.370;-0.486;2023-05-22T09:11:11;102006.09;;;17.04;52.12
71424;BME280;59240;51.370;-0.486;2023-05-22T09:13:38;102006.09;;;17.04;52.20
71424;BME280;59240;51.370;-0.486;2023-05-22T09:16:11;102010.47;;;17.05;52.01
71424;BME280;59240;51.370;-0.486;2023-05-22T09:18:39;102003.47;;;17.04;51.96
71424;BME280;59240;51.370;-0.486;2023-05-22T09:21:07;102002.63;;;17.02;51.72
71424;BME280;59240;51.370;-0.486;2023-05-22T09:23:58;102016.47;;;17.10;51.70
71424;BME280;59240;51.370;-0.486;2023-05-22T09:26:28;102017.41;;;17.07;50.94
71424;BME280;59240;51.370;-0.486;2023-05-22T09:28:58;102009.56;;;17.06;51.14
71424;BME280;59240;51.370;-0.486;2023-05-22T09:31:24;102013.84;;;17.08;50.38
71424;BME280;59240;51.370;-0.486;2023-05-22T09:33:55;101996.44;;;17.04;50.51
71424;BME280;59240;51.370;-0.486;2023-05-22T09:36:29;102026.09;;;17.11;49.25
71424;BME280;59240;51.370;-0.486;2023-05-22T09:38:59;102016.53;;;17.07;49.98
71424;BME280;59240;51.370;-0.486;2023-05-22T09:41:27;102025.06;;;17.15;50.79
71424;BME280;59240;51.370;-0.486;2023-05-22T09:43:55;102002.56;;;17.05;50.90
71424;BME280;59240;51.370;-0.486;2023-05-22T09:46:23;101998.72;;;17.15;50.39
71424;BME280;59240;51.370;-0.486;2023-05-22T09:48:51;102004.00;;;17.15;50.24
71424;BME280;59240;51.370;-0.486;2023-05-22T09:51:20;102003.94;;;17.18;50.30
71424;BME280;59240;51.370;-0.486;2023-05-22T09:53:49;102019.63;;;17.21;50.05
71424;BME280;59240;51.370;-0.486;2023-05-22T09:56:17;102004.09;;;17.12;50.70
71424;BME280;59240;51.370;-0.486;2023-05-22T09:59:07;102023.00;;;17.26;50.53
71424;BME280;59240;51.370;-0.486;2023-05-22T10:01:35;102004.00;;;17.15;50.51
71424;BME280;59240;51.370;-0.486;2023-05-22T10:04:05;102010.97;;;17.17;50.51
71424;BME280;59240;51.370;-0.486;2023-05-22T10:06:34;102012.63;;;17.20;50.27
71424;BME280;59240;51.370;-0.486;2023-05-22T10:09:04;101982.41;;;17.04;50.21
71424;BME280;59240;51.370;-0.486;2023-05-22T10:11:34;102006.63;;;17.15;51.17
71424;BME280;59240;51.370;-0.486;2023-05-22T10:14:02;102022.13;;;17.26;50.52
71424;BME280;59240;51.370;-0.486;2023-05-22T10:16:30;102000.56;;;17.13;50.99
71424;BME280;59240;51.370;-0.486;2023-05-22T10:18:59;102002.03;;;17.21;50.54
71424;BME280;59240;51.370;-0.486;2023-05-22T10:21:28;102009.50;;;17.37;50.73
71424;BME280;59240;51.370;-0.486;2023-05-22T10:23:57;102000.88;;;17.32;50.56
71424;BME280;59240;51.370;-0.486;2023-05-22T10:26:25;102023.31;;;17.45;50.60
71424;BME280;59240;51.370;-0.486;2023-05-22T10:28:59;102024.34;;;17.39;48.75
71424;BME280;59240;51.370;-0.486;2023-05-22T10:32:03;102028.63;;;17.43;50.61
71424;BME280;59240;51.370;-0.486;2023-05-22T10:35:10;102026.75;;;17.47;50.57
71424;BME280;59240;51.370;-0.486;2023-05-22T10:37:44;102007.88;;;17.33;50.14
71424;BME280;59240;51.370;-0.486;2023-05-22T10:40:17;102015.81;;;17.31;50.39
71424;BME280;59240;51.370;-0.486;2023-05-22T10:42:44;102000.38;;;17.19;50.09
71424;BME280;59240;51.370;-0.486;2023-05-22T10:45:11;102015.03;;;17.28;50.42
71424;BME280;59240;51.370;-0.486;2023-05-22T10:47:38;102004.59;;;17.25;50.66
71424;BME280;59240;51.370;-0.486;2023-05-22T10:50:09;102028.38;;;17.51;50.42
71424;BME280;59240;51.370;-0.486;2023-05-22T10:52:39;102018.59;;;17.55;50.48
71424;BME280;59240;51.370;-0.486;2023-05-22T10:55:07;102042.63;;;17.73;50.48
71424;BME280;59240;51.370;-0.486;2023-05-22T10:57:37;102014.78;;;17.65;50.06
71424;BME280;59240;51.370;-0.486;2023-05-22T11:00:14;102027.69;;;17.74;49.80
71424;BME280;59240;51.370;-0.486;2023-05-22T11:02:43;102034.47;;;17.81;49.84
71424;BME280;59240;51.370;-0.486;2023-05-22T11:07:39;102017.88;;;17.79;49.84
71424;BME280;59240;51.370;-0.486;2023-05-22T11:10:08;102034.03;;;17.95;50.00
71424;BME280;59240;51.370;-0.486;2023-05-22T11:12:35;102010.66;;;17.84;48.91
71424;BME280;59240;51.370;-0.486;2023-05-22T11:15:09;102019.28;;;17.89;48.54
71424;BME280;59240;51.370;-0.486;2023-05-22T11:17:40;102011.06;;;17.98;49.57
71424;BME280;59240;51.370;-0.486;2023-05-22T11:22:42;101993.91;;;18.12;49.81
71424;BME280;59240;51.370;-0.486;2023-05-22T11:25:14;102002.13;;;18.29;49.38
71424;BME280;59240;51.370;-0.486;2023-05-22T11:27:43;101971.44;;;18.26;49.31
71424;BME280;59240;51.370;-0.486;2023-05-22T11:30:11;101985.38;;;18.55;49.96
71424;BME280;59240;51.370;-0.486;2023-05-22T11:32:40;101975.03;;;18.74;49.29
71424;BME280;59240;51.370;-0.486;2023-05-22T11:35:22;101988.69;;;19.08;48.66
71424;BME280;59240;51.370;-0.486;2023-05-22T11:37:51;101965.34;;;19.20;48.61
71424;BME280;59240;51.370;-0.486;2023-05-22T11:40:22;101974.47;;;19.56;48.52
71424;BME280;59240;51.370;-0.486;2023-05-22T11:42:55;101978.38;;;19.90;47.82
71424;BME280;59240;51.370;-0.486;2023-05-22T11:45:22;101982.38;;;20.00;47.83
71424;BME280;59240;51.370;-0.486;2023-05-22T11:47:49;101970.75;;;20.04;47.91
71424;BME280;59240;51.370;-0.486;2023-05-22T11:50:16;101989.28;;;20.25;46.04
71424;BME280;59240;51.370;-0.486;2023-05-22T11:52:59;101992.28;;;20.36;46.74
71424;BME280;59240;51.370;-0.486;2023-05-22T11:55:27;101946.00;;;20.26;45.92
71424;BME280;59240;51.370;-0.486;2023-05-22T11:57:54;101972.72;;;20.40;43.29
71424;BME280;59240;51.370;-0.486;2023-05-22T12:00:23;101976.94;;;20.44;45.78
71424;BME280;59240;51.370;-0.486;2023-05-22T12:02:51;101969.69;;;20.49;45.17
71424;BME280;59240;51.370;-0.486;2023-05-22T12:05:20;101977.88;;;20.43;43.76
71424;BME280;59240;51.370;-0.486;2023-05-22T12:07:46;101974.28;;;20.44;45.50
71424;BME280;59240;51.370;-0.486;2023-05-22T12:10:13;101971.53;;;20.27;42.98
71424;BME280;59240;51.370;-0.486;2023-05-22T12:12:43;101999.03;;;20.43;45.33
71424;BME280;59240;51.370;-0.486;2023-05-22T12:15:09;101995.72;;;20.38;45.54
71424;BME280;59240;51.370;-0.486;2023-05-22T12:17:38;101976.16;;;20.21;45.91
71424;BME280;59240;51.370;-0.486;2023-05-22T12:20:05;101974.44;;;20.00;42.73
71424;BME280;59240;51.370;-0.486;2023-05-22T12:22:32;101993.41;;;20.10;45.02
71424;BME280;59240;51.370;-0.486;2023-05-22T12:24:59;101960.78;;;19.89;45.44
71424;BME280;59240;51.370;-0.486;2023-05-22T12:27:28;101995.19;;;20.09;44.99
71424;BME280;59240;51.370;-0.486;2023-05-22T12:30:07;101991.03;;;20.04;42.96
71424;BME280;59240;51.370;-0.486;2023-05-22T12:32:35;101986.63;;;20.04;44.96
71424;BME280;59240;51.370;-0.486;2023-05-22T12:35:02;101964.25;;;19.91;43.74
71424;BME280;59240;51.370;-0.486;2023-05-22T12:37:28;101948.75;;;19.82;44.74
71424;BME280;59240;51.370;-0.486;2023-05-22T12:39:58;101974.28;;;20.03;44.83
71424;BME280;59240;51.370;-0.486;2023-05-22T12:42:26;101985.13;;;20.17;44.79
71424;BME280;59240;51.370;-0.486;2023-05-22T12:44:55;101984.63;;;20.09;44.09
71424;BME280;59240;51.370;-0.486;2023-05-22T12:47:23;101986.16;;;20.15;44.25
71424;BME280;59240;51.370;-0.486;2023-05-22T12:49:50;101996.91;;;20.10;41.72
71424;BME280;59240;51.370;-0.486;2023-05-22T12:52:17;101993.22;;;20.14;44.17
71424;BME280;59240;51.370;-0.486;2023-05-22T12:54:44;101971.66;;;20.03;44.07
71424;BME280;59240;51.370;-0.486;2023-05-22T12:57:13;101982.91;;;20.08;43.96
71424;BME280;59240;51.370;-0.486;2023-05-22T12:59:44;101960.53;;;19.95;43.60
71424;BME280;59240;51.370;-0.486;2023-05-22T13:02:13;101997.06;;;20.07;44.51
71424;BME280;59240;51.370;-0.486;2023-05-22T13:04:40;101986.88;;;19.98;43.92
71424;BME280;59240;51.370;-0.486;2023-05-22T13:07:09;102007.50;;;20.10;43.83
71424;BME280;59240;51.370;-0.486;2023-05-22T13:09:36;101983.41;;;19.96;43.98